Pilot Station, Alaska
Current Conditions -  °F | °C
As of 1:36 AM on Monday 22 Dec 2014 (Local Time) from PASM Reporting Station
Clear Clear  
Wind Chill: -18°   Ceiling: Unl
Heat Index:   Visibility: 10mi
Dew Point: -2°   Wind: 13mph
Humidity: 92%   Direction: 350°N
Pressure: 29.76"   Gusts: NA
Location:  61.94°N, 162.88°W
Report Text: PASM 221036Z AUTO 35011KT 10SM CLR M18/M19 A2976 RMK AO1
Loading
Personal Weather Stations






























Interactive Weather Map New forecast layout! Learn more

10-Day Weather Forecast

Advertisements
Track Severe Weather on mobile